Time;durP1;ratioP1;P1;durP2;ratioP2;P2;SDS_P1;SDS_P2;PMS_P1;PMS_P2;Temp;Humidity;BMP_temperature;BMP_pressure;BME280_temperature;BME280_humidity;BME280_pressure;Samples;Min_cycle;Max_cycle;Signal;HPM_P1;HPM_P2
2023/08/15 00:01:57;;;;;;;12.13;5.78;;;19.70;99.90;;;;;;5078698;28;20211;-80
2023/08/15 00:04:24;;;;;;;19.58;6.88;;;19.60;99.90;;;;;;5068271;28;20314;-79
2023/08/15 00:06:50;;;;;;;14.82;7.40;;;19.30;99.90;;;;;;5077832;28;20210;-81
2023/08/15 00:09:17;;;;;;;25.70;7.95;;;19.30;99.90;;;;;;5061334;28;20222;-80
2023/08/15 00:11:45;;;;;;;18.65;6.50;;;19.10;99.90;;;;;;5062156;28;20577;-79
2023/08/15 00:14:12;;;;;;;21.58;8.40;;;19.20;99.90;;;;;;5073420;28;20199;-80
2023/08/15 00:16:39;;;;;;;30.55;9.10;;;19.10;99.90;;;;;;5061117;28;20227;-80
2023/08/15 00:19:06;;;;;;;29.33;8.18;;;19.10;99.90;;;;;;5061724;28;20800;-80
2023/08/15 00:21:33;;;;;;;25.33;8.50;;;19.20;99.90;;;;;;5061783;28;20253;-80
2023/08/15 00:23:59;;;;;;;24.33;7.70;;;19.20;99.90;;;;;;5074641;28;20205;-80
2023/08/15 00:26:26;;;;;;;24.67;7.20;;;19.20;99.90;;;;;;5081426;28;20205;-81
2023/08/15 00:28:54;;;;;;;18.67;7.05;;;19.20;99.90;;;;;;5078017;28;20260;-79
2023/08/15 00:31:21;;;;;;;11.95;6.50;;;19.20;99.90;;;;;;5080971;28;20195;-80
2023/08/15 00:33:48;;;;;;;16.88;6.20;;;19.30;99.90;;;;;;5073405;28;20203;-81
2023/08/15 00:36:14;;;;;;;14.23;6.28;;;19.30;99.90;;;;;;5080557;28;20224;-80
2023/08/15 00:38:41;;;;;;;21.38;7.20;;;19.00;99.90;;;;;;5079837;28;20230;-79
2023/08/15 00:41:09;;;;;;;22.65;7.38;;;18.90;99.90;;;;;;5081862;28;20289;-80
2023/08/15 00:43:36;;;;;;;24.20;7.45;;;18.90;99.90;;;;;;5063796;28;20226;-80
2023/08/15 00:46:06;;;;;;;21.20;8.60;;;19.00;99.90;;;;;;5070239;28;20707;-80
2023/08/15 00:48:34;;;;;;;16.83;7.13;;;18.90;99.90;;;;;;5079737;28;20633;-79
2023/08/15 00:51:02;;;;;;;11.63;6.00;;;18.80;99.90;;;;;;5080527;28;20194;-81
2023/08/15 00:53:31;;;;;;;17.10;6.07;;;18.80;99.90;;;;;;5081533;28;20730;-80
2023/08/15 00:55:59;;;;;;;9.80;5.75;;;18.90;99.90;;;;;;5067027;28;20306;-79
2023/08/15 00:58:26;;;;;;;11.27;5.88;;;18.90;99.90;;;;;;5059851;28;20222;-81
2023/08/15 01:00:53;;;;;;;9.75;6.28;;;19.20;99.90;;;;;;5063102;28;20199;-80
2023/08/15 01:03:22;;;;;;;10.68;5.88;;;18.90;99.90;;;;;;5080773;28;20213;-79
2023/08/15 01:05:50;;;;;;;10.50;5.90;;;18.70;99.90;;;;;;5069150;28;20201;-81
2023/08/15 01:08:17;;;;;;;9.32;5.53;;;18.60;99.90;;;;;;5060196;28;20701;-79
2023/08/15 01:10:45;;;;;;;11.23;6.60;;;19.00;99.90;;;;;;5061174;28;20215;-79
2023/08/15 01:13:20;;;;;;;19.65;7.47;;;18.90;99.90;;;;;;5059931;28;20687;-78
2023/08/15 01:15:51;;;;;;;23.42;8.15;;;18.80;99.90;;;;;;5060126;28;20229;-79
2023/08/15 01:18:25;;;;;;;14.43;7.07;;;18.70;99.90;;;;;;5061088;28;20282;-80
2023/08/15 01:20:55;;;;;;;11.00;6.22;;;18.80;99.90;;;;;;5062502;28;20206;-80
2023/08/15 01:23:28;;;;;;;14.88;6.63;;;19.00;99.90;;;;;;5083870;28;20208;-80
2023/08/15 01:25:56;;;;;;;14.95;6.60;;;18.90;99.90;;;;;;5070917;28;20250;-79
2023/08/15 01:28:23;;;;;;;12.52;6.10;;;18.90;99.90;;;;;;5067211;28;20233;-79
2023/08/15 01:30:57;;;;;;;11.40;5.78;;;19.00;99.90;;;;;;5081638;28;20202;-80
2023/08/15 01:33:30;;;;;;;10.88;5.57;;;19.20;99.90;;;;;;5081146;28;20222;-80
2023/08/15 01:36:02;;;;;;;10.75;5.70;;;19.20;99.90;;;;;;5070330;28;20219;-80
2023/08/15 01:38:37;;;;;;;9.50;5.78;;;19.30;99.90;;;;;;5059314;28;20262;-79
2023/08/15 01:41:09;;;;;;;8.60;5.75;;;19.40;99.90;;;;;;5059712;28;20202;-79
2023/08/15 01:43:37;;;;;;;6.85;5.50;;;19.60;99.90;;;;;;5063001;28;20200;-79
2023/08/15 01:46:05;;;;;;;8.55;4.95;;;19.50;99.90;;;;;;5067558;28;20252;-80
2023/08/15 01:48:32;;;;;;;6.47;5.22;;;19.50;99.90;;;;;;5068560;28;20229;-80
2023/08/15 01:50:59;;;;;;;10.80;5.80;;;19.60;99.90;;;;;;5074222;28;20207;-80
2023/08/15 01:53:26;;;;;;;5.30;4.80;;;19.60;99.90;;;;;;5080559;28;20273;-80
2023/08/15 01:55:53;;;;;;;9.50;5.05;;;19.60;99.90;;;;;;5076761;28;20219;-80
2023/08/15 01:58:21;;;;;;;7.93;5.30;;;19.60;99.90;;;;;;5079265;28;20830;-80
2023/08/15 02:00:48;;;;;;;8.00;5.35;;;19.60;99.90;;;;;;5084093;28;20213;-80
2023/08/15 02:03:15;;;;;;;7.25;4.38;;;19.50;99.90;;;;;;5083115;28;20206;-80
2023/08/15 02:05:42;;;;;;;7.20;4.93;;;19.60;99.90;;;;;;5075001;28;20191;-80
2023/08/15 02:08:09;;;;;;;8.15;5.07;;;19.50;99.90;;;;;;5067946;28;20233;-79
2023/08/15 02:10:36;;;;;;;6.40;5.32;;;19.40;99.90;;;;;;5064619;28;20208;-80
2023/08/15 02:13:03;;;;;;;6.68;5.10;;;19.50;99.90;;;;;;5063264;28;20237;-79
2023/08/15 02:15:31;;;;;;;9.68;5.38;;;19.50;99.90;;;;;;5077909;28;20695;-79
2023/08/15 02:17:57;;;;;;;9.45;5.30;;;19.60;99.90;;;;;;5087172;28;20212;-80
2023/08/15 02:20:24;;;;;;;7.05;4.60;;;19.60;99.90;;;;;;5103357;28;20216;-80
2023/08/15 02:22:51;;;;;;;6.97;5.00;;;19.70;99.90;;;;;;5080224;28;20289;-80
2023/08/15 02:25:18;;;;;;;11.52;6.00;;;19.60;99.90;;;;;;5083638;28;20209;-80
2023/08/15 02:27:45;;;;;;;12.07;4.78;;;19.60;99.90;;;;;;5083149;28;20194;-77
2023/08/15 02:30:13;;;;;;;8.05;5.03;;;19.80;99.90;;;;;;5083930;28;20198;-80
2023/08/15 02:32:41;;;;;;;9.60;5.38;;;19.80;99.90;;;;;;5084120;28;20206;-80
2023/08/15 02:35:09;;;;;;;10.63;5.63;;;19.80;99.90;;;;;;5085126;28;20209;-82
2023/08/15 02:37:35;;;;;;;8.68;7.13;;;19.70;99.90;;;;;;5075453;28;20215;-81
2023/08/15 02:40:06;;;;;;;7.18;5.53;;;19.80;99.90;;;;;;5084217;28;20233;-81
2023/08/15 02:42:32;;;;;;;8.00;5.32;;;20.00;99.90;;;;;;5083425;28;20237;-80
2023/08/15 02:45:01;;;;;;;8.38;5.80;;;20.10;99.90;;;;;;5067078;28;20209;-81
2023/08/15 02:47:27;;;;;;;8.27;6.07;;;20.00;99.90;;;;;;5063156;28;20275;-83
2023/08/15 02:49:56;;;;;;;8.07;5.38;;;19.80;99.90;;;;;;5063991;28;20233;-82
2023/08/15 02:52:22;;;;;;;8.93;5.88;;;19.90;99.90;;;;;;5063345;28;20274;-82
2023/08/15 02:54:49;;;;;;;8.75;5.22;;;19.80;99.90;;;;;;5072116;28;20259;-81
2023/08/15 02:57:16;;;;;;;9.40;5.10;;;20.00;99.90;;;;;;5083133;28;20611;-81
2023/08/15 02:59:43;;;;;;;8.63;4.50;;;20.10;99.90;;;;;;5081758;28;20726;-81
2023/08/15 03:02:11;;;;;;;7.43;4.38;;;20.30;99.90;;;;;;5082981;28;20277;-81
2023/08/15 03:04:38;;;;;;;5.88;4.60;;;20.50;99.90;;;;;;5079227;28;20203;-81
2023/08/15 03:07:06;;;;;;;6.13;4.10;;;20.70;99.90;;;;;;5076427;28;20194;-82
2023/08/15 03:09:32;;;;;;;8.23;4.30;;;20.70;99.90;;;;;;5076411;28;20282;-81
2023/08/15 03:11:59;;;;;;;5.68;4.40;;;20.70;99.90;;;;;;5067919;28;20190;-78
2023/08/15 03:14:28;;;;;;;7.03;4.63;;;20.70;99.90;;;;;;5083934;28;20197;-80
2023/08/15 03:16:55;;;;;;;8.05;4.32;;;20.60;99.90;;;;;;5103515;28;20311;-80
2023/08/15 03:19:21;;;;;;;6.05;4.50;;;20.60;99.90;;;;;;5077597;28;20215;-81
2023/08/15 03:21:48;;;;;;;11.05;6.07;;;20.60;99.90;;;;;;5062933;28;20207;-83
2023/08/15 03:24:16;;;;;;;10.70;6.57;;;20.60;99.90;;;;;;5063772;28;20222;-81
2023/08/15 03:26:43;;;;;;;6.32;4.03;;;20.60;99.90;;;;;;5062439;28;20229;-80
2023/08/15 03:29:10;;;;;;;5.82;4.25;;;20.70;99.90;;;;;;5061263;28;20218;-82
2023/08/15 03:31:37;;;;;;;9.35;4.97;;;20.60;99.90;;;;;;5062264;28;20582;-83
2023/08/15 03:34:04;;;;;;;5.25;4.47;;;20.40;99.90;;;;;;5078318;28;20581;-82
2023/08/15 03:36:31;;;;;;;5.70;4.53;;;20.40;99.90;;;;;;5079597;28;20210;-81
2023/08/15 03:38:58;;;;;;;6.97;4.10;;;20.50;99.90;;;;;;5081681;28;20230;-81
2023/08/15 03:41:26;;;;;;;7.50;4.25;;;20.30;99.90;;;;;;5081935;28;20573;-80
2023/08/15 03:43:53;;;;;;;6.30;4.65;;;20.20;99.90;;;;;;5084140;28;20198;-81
2023/08/15 03:46:20;;;;;;;7.50;4.68;;;20.30;99.90;;;;;;5084300;28;20221;-82
2023/08/15 03:48:47;;;;;;;5.82;4.10;;;20.20;99.90;;;;;;5083481;28;20222;-82
2023/08/15 03:51:14;;;;;;;7.57;4.03;;;20.20;99.90;;;;;;5083694;28;20262;-82
2023/08/15 03:53:43;;;;;;;5.63;4.45;;;20.30;99.90;;;;;;5082726;28;20212;-80
2023/08/15 03:56:09;;;;;;;6.32;4.82;;;20.40;99.90;;;;;;5083863;28;20218;-82
2023/08/15 03:58:38;;;;;;;5.13;4.47;;;20.40;99.90;;;;;;5082139;28;20290;-79
2023/08/15 04:01:05;;;;;;;5.20;4.40;;;20.20;99.90;;;;;;5082596;28;20624;-78
2023/08/15 04:03:31;;;;;;;6.68;4.72;;;20.10;99.90;;;;;;5077808;28;20217;-81
2023/08/15 04:05:58;;;;;;;4.78;4.32;;;20.20;99.90;;;;;;5079448;28;20210;-82
2023/08/15 04:08:25;;;;;;;5.63;4.13;;;20.10;99.90;;;;;;5079692;28;20229;-80
2023/08/15 04:10:52;;;;;;;5.18;4.57;;;20.00;99.90;;;;;;5080808;28;20206;-82
2023/08/15 04:13:19;;;;;;;5.65;4.50;;;20.00;99.90;;;;;;5083316;28;20308;-82
2023/08/15 04:15:47;;;;;;;7.63;4.60;;;20.00;99.90;;;;;;5082606;28;20226;-82
2023/08/15 04:18:14;;;;;;;6.70;4.10;;;19.90;99.90;;;;;;5077059;28;20222;-81
2023/08/15 04:20:43;;;;;;;5.28;4.78;;;20.00;99.90;;;;;;5081439;28;20792;-82
2023/08/15 04:23:11;;;;;;;6.65;5.25;;;20.00;99.90;;;;;;5081668;28;20198;-80
2023/08/15 04:25:40;;;;;;;9.13;4.85;;;20.00;99.90;;;;;;5081789;28;20277;-82
2023/08/15 04:28:07;;;;;;;9.30;5.40;;;20.00;99.90;;;;;;5067491;28;20272;-82
2023/08/15 04:30:34;;;;;;;8.30;5.30;;;19.90;99.90;;;;;;5063046;28;20664;-80
2023/08/15 04:33:03;;;;;;;7.05;5.20;;;20.00;99.90;;;;;;5062185;28;20211;-80
2023/08/15 04:35:30;;;;;;;7.47;4.70;;;20.00;99.90;;;;;;5062144;28;20216;-81
2023/08/15 04:37:56;;;;;;;5.75;4.57;;;19.90;99.90;;;;;;5060804;28;20290;-78
2023/08/15 04:40:31;;;;;;;8.30;5.18;;;19.90;99.90;;;;;;5061689;28;20293;-81
2023/08/15 04:42:58;;;;;;;8.40;4.90;;;20.00;99.90;;;;;;5061551;28;20202;-81
2023/08/15 04:45:25;;;;;;;8.45;4.60;;;20.00;99.90;;;;;;5076629;28;20222;-80
2023/08/15 04:47:52;;;;;;;6.60;5.07;;;20.10;99.90;;;;;;5080629;28;20206;-81
2023/08/15 04:50:21;;;;;;;5.15;4.60;;;20.20;99.90;;;;;;5081992;28;20224;-80
2023/08/15 04:52:48;;;;;;;8.52;4.80;;;20.20;99.90;;;;;;5081249;28;20217;-80
2023/08/15 04:55:15;;;;;;;5.57;4.70;;;20.20;99.90;;;;;;5080961;28;20209;-82
2023/08/15 04:57:44;;;;;;;7.25;5.20;;;20.20;99.90;;;;;;5081415;28;20226;-79
2023/08/15 05:00:13;;;;;;;5.32;4.53;;;20.20;99.90;;;;;;5067246;28;20218;-80
2023/08/15 05:02:40;;;;;;;7.43;4.90;;;20.40;99.90;;;;;;5069238;28;20205;-81
2023/08/15 05:05:10;;;;;;;6.93;4.90;;;20.40;99.90;;;;;;5079991;28;20237;-82
2023/08/15 05:07:39;;;;;;;6.05;4.43;;;20.50;99.90;;;;;;5081353;28;20202;-82
2023/08/15 05:10:07;;;;;;;7.28;4.75;;;20.60;99.90;;;;;;5078129;28;20222;-79
2023/08/15 05:12:34;;;;;;;7.53;4.97;;;20.60;99.90;;;;;;5065195;28;20230;-80
2023/08/15 05:15:01;;;;;;;4.78;4.35;;;20.70;99.90;;;;;;5082122;28;20730;-82
2023/08/15 05:17:28;;;;;;;6.35;4.30;;;21.00;99.90;;;;;;5076768;28;20255;-81
2023/08/15 05:19:55;;;;;;;9.80;5.05;;;21.00;99.90;;;;;;5081967;28;20285;-82
2023/08/15 05:22:22;;;;;;;7.63;4.43;;;21.20;99.90;;;;;;5083334;28;20222;-79
2023/08/15 05:24:50;;;;;;;6.95;4.50;;;21.20;99.90;;;;;;5083951;28;20578;-81
2023/08/15 05:27:17;;;;;;;7.60;4.65;;;21.30;99.90;;;;;;5078887;28;20203;-79
2023/08/15 05:29:44;;;;;;;8.90;5.15;;;21.40;99.90;;;;;;5084212;28;20228;-81
2023/08/15 05:32:11;;;;;;;7.35;5.35;;;21.50;99.90;;;;;;5086227;28;20213;-80
2023/08/15 05:34:38;;;;;;;8.63;5.05;;;21.60;99.90;;;;;;5083465;28;20265;-79
2023/08/15 05:37:05;;;;;;;6.80;5.03;;;21.60;99.90;;;;;;5084715;28;20226;-80
2023/08/15 05:39:32;;;;;;;8.57;5.43;;;21.60;99.90;;;;;;5084259;28;20226;-79
2023/08/15 05:42:00;;;;;;;7.47;4.78;;;21.70;99.90;;;;;;5083791;28;20206;-80
2023/08/15 05:44:27;;;;;;;6.32;4.13;;;21.70;99.90;;;;;;5084329;28;20289;-80
2023/08/15 05:46:54;;;;;;;6.68;4.72;;;21.70;99.90;;;;;;5085323;28;20201;-81
2023/08/15 05:49:21;;;;;;;7.22;4.53;;;21.80;99.90;;;;;;5077711;28;20217;-81
2023/08/15 05:51:47;;;;;;;6.72;4.85;;;21.80;99.90;;;;;;5091981;28;20656;-80
2023/08/15 05:54:14;;;;;;;7.93;4.82;;;21.90;99.90;;;;;;5100133;28;20274;-80
2023/08/15 05:56:41;;;;;;;8.65;4.57;;;22.00;99.90;;;;;;5079850;28;20223;-80
2023/08/15 05:59:10;;;;;;;6.63;4.22;;;22.00;99.90;;;;;;5081694;28;20253;-80
2023/08/15 06:01:38;;;;;;;6.72;4.63;;;21.90;99.90;;;;;;5082826;28;20202;-80
2023/08/15 06:04:06;;;;;;;7.13;4.35;;;21.90;99.90;;;;;;5064337;28;20210;-81
2023/08/15 06:06:39;;;;;;;9.65;5.22;;;21.80;99.90;;;;;;5065799;28;20560;-81
2023/08/15 06:09:05;;;;;;;7.53;4.45;;;21.80;99.90;;;;;;5062850;28;20226;-81
2023/08/15 06:11:32;;;;;;;7.50;4.68;;;21.80;99.90;;;;;;5065139;28;20243;-79
2023/08/15 06:13:59;;;;;;;6.35;4.53;;;21.70;99.90;;;;;;5069411;28;20293;-81
2023/08/15 06:16:28;;;;;;;5.88;4.20;;;21.60;99.90;;;;;;5085101;28;20289;-79
2023/08/15 06:18:55;;;;;;;7.43;4.70;;;21.50;99.90;;;;;;5086446;28;20225;-80
2023/08/15 06:21:22;;;;;;;7.65;5.15;;;21.40;99.90;;;;;;5086422;28;20202;-80
2023/08/15 06:23:50;;;;;;;6.47;4.30;;;21.40;99.90;;;;;;5087931;28;20233;-79
2023/08/15 06:26:16;;;;;;;7.75;5.05;;;21.20;99.90;;;;;;5088488;28;20655;-80
2023/08/15 06:28:43;;;;;;;9.65;5.18;;;21.10;99.90;;;;;;5083634;28;20237;-79
2023/08/15 06:31:10;;;;;;;9.00;5.15;;;21.00;99.90;;;;;;5084319;28;20202;-81
2023/08/15 06:33:39;;;;;;;5.63;4.40;;;21.00;99.90;;;;;;5087603;28;20199;-80
2023/08/15 06:36:06;;;;;;;7.53;4.90;;;20.90;99.90;;;;;;5087188;28;20221;-80
2023/08/15 06:38:33;;;;;;;7.93;5.10;;;20.80;99.90;;;;;;5084737;28;20297;-80
2023/08/15 06:41:02;;;;;;;8.68;5.55;;;20.80;99.90;;;;;;5087648;28;20254;-80
2023/08/15 06:43:29;;;;;;;5.82;5.22;;;20.80;99.90;;;;;;5071149;28;20211;-80
2023/08/15 06:45:57;;;;;;;9.60;6.22;;;20.60;99.90;;;;;;5071455;28;20236;-80
2023/08/15 06:48:24;;;;;;;10.82;5.80;;;20.50;99.90;;;;;;5087507;28;20219;-79
2023/08/15 06:50:52;;;;;;;8.13;5.45;;;20.40;99.90;;;;;;5087767;28;20297;-80
2023/08/15 06:53:20;;;;;;;9.25;5.65;;;20.30;99.90;;;;;;5087798;28;20280;-79
2023/08/15 06:55:52;;;;;;;12.15;6.03;;;20.40;99.90;;;;;;5087853;28;20232;-79
2023/08/15 06:58:20;;;;;;;11.93;6.15;;;20.30;99.90;;;;;;5070550;28;20237;-78
2023/08/15 07:00:50;;;;;;;8.80;5.85;;;20.10;99.90;;;;;;5066926;28;20243;-80
2023/08/15 07:03:17;;;;;;;11.25;5.72;;;20.10;99.90;;;;;;5066203;28;20583;-80
2023/08/15 07:05:44;;;;;;;12.20;5.40;;;19.90;99.90;;;;;;5066337;28;20195;-81
2023/08/15 07:08:13;;;;;;;8.00;4.60;;;19.90;99.90;;;;;;5079679;28;20310;-79
2023/08/15 07:10:41;;;;;;;7.40;4.63;;;19.90;99.90;;;;;;5076409;28;20264;-79
2023/08/15 07:13:08;;;;;;;11.73;5.60;;;20.00;99.90;;;;;;5087910;28;20207;-81
2023/08/15 07:15:35;;;;;;;8.20;4.22;;;20.10;99.90;;;;;;5089268;28;20229;-79
2023/08/15 07:18:02;;;;;;;5.75;3.70;;;20.10;99.90;;;;;;5087198;28;20240;-79
2023/08/15 07:20:29;;;;;;;3.70;3.40;;;20.00;99.90;;;;;;5087056;28;20202;-79
2023/08/15 07:22:56;;;;;;;7.20;3.92;;;20.10;99.90;;;;;;5073140;28;20214;-79
2023/08/15 07:25:24;;;;;;;5.93;3.42;;;20.20;99.90;;;;;;5081002;28;20209;-79
2023/08/15 07:27:51;;;;;;;5.30;3.15;;;20.20;99.90;;;;;;5085964;28;20263;-79
2023/08/15 07:30:18;;;;;;;4.03;3.15;;;20.30;99.90;;;;;;5086764;28;20206;-80
2023/08/15 07:32:45;;;;;;;6.55;3.83;;;20.30;99.90;;;;;;5074809;28;20205;-80
2023/08/15 07:35:12;;;;;;;5.05;3.20;;;20.40;99.90;;;;;;5066813;28;20207;-80
2023/08/15 07:37:40;;;;;;;4.80;3.13;;;20.60;99.90;;;;;;5066552;28;20298;-79
2023/08/15 07:40:10;;;;;;;4.78;2.67;;;20.60;99.90;;;;;;5067381;28;20752;-80
2023/08/15 07:42:39;;;;;;;6.15;2.60;;;20.60;99.90;;;;;;5066911;28;20203;-80
2023/08/15 07:45:07;;;;;;;2.78;2.55;;;20.60;99.90;;;;;;5066055;28;20746;-80
2023/08/15 07:47:36;;;;;;;2.80;2.40;;;20.80;99.90;;;;;;5074128;28;20242;-80
2023/08/15 07:50:17;;;;;;;6.43;2.83;;;20.80;99.90;;;;;;5085452;28;20564;-79
2023/08/15 07:52:44;;;;;;;2.53;2.08;;;20.90;99.90;;;;;;5085185;28;20667;-79
2023/08/15 07:55:12;;;;;;;2.70;2.03;;;21.10;99.90;;;;;;5086092;28;20203;-80
2023/08/15 07:57:40;;;;;;;3.65;2.33;;;21.00;99.90;;;;;;5076164;28;20263;-80
2023/08/15 08:00:09;;;;;;;2.72;2.25;;;21.20;99.90;;;;;;5066472;28;20249;-80
2023/08/15 08:02:37;;;;;;;2.17;1.95;;;21.60;99.90;;;;;;5067407;28;20237;-79
2023/08/15 08:05:06;;;;;;;2.40;2.20;;;21.80;99.90;;;;;;5067058;28;20210;-80
2023/08/15 08:07:34;;;;;;;2.88;2.45;;;22.00;99.90;;;;;;5066125;28;20206;-79
2023/08/15 08:10:01;;;;;;;2.65;2.30;;;21.90;99.90;;;;;;5065044;28;20231;-80
2023/08/15 08:12:28;;;;;;;3.22;2.20;;;21.80;99.90;;;;;;5067623;28;20222;-78
2023/08/15 08:14:56;;;;;;;2.25;2.05;;;21.80;99.90;;;;;;5066594;28;20206;-79
2023/08/15 08:17:24;;;;;;;2.80;2.22;;;21.90;99.90;;;;;;5074625;28;20321;-79
2023/08/15 08:19:51;;;;;;;2.75;1.88;;;21.90;99.90;;;;;;5084841;28;20293;-81
2023/08/15 08:22:17;;;;;;;3.45;2.22;;;22.00;99.90;;;;;;5088371;28;20198;-79
2023/08/15 08:24:44;;;;;;;1.92;1.83;;;22.10;99.90;;;;;;5075794;28;20206;-79
2023/08/15 08:27:11;;;;;;;5.15;2.20;;;22.00;99.90;;;;;;5072455;28;20226;-80
2023/08/15 08:29:38;;;;;;;2.97;2.00;;;22.20;99.90;;;;;;5065923;28;20222;-79
2023/08/15 08:32:07;;;;;;;2.38;1.88;;;22.30;99.90;;;;;;5065249;28;20206;-79
2023/08/15 08:34:33;;;;;;;1.40;1.30;;;22.30;99.90;;;;;;5065249;28;20237;-81
2023/08/15 08:37:00;;;;;;;1.75;1.65;;;22.30;99.90;;;;;;5067461;28;20230;-81
2023/08/15 08:39:27;;;;;;;2.08;1.75;;;22.10;99.90;;;;;;5067012;28;20262;-81
2023/08/15 08:41:54;;;;;;;2.00;1.67;;;22.10;99.90;;;;;;5066927;28;20262;-82
2023/08/15 08:44:23;;;;;;;1.95;1.75;;;22.10;99.90;;;;;;5067222;28;20213;-81
2023/08/15 08:46:50;;;;;;;1.90;1.80;;;22.10;99.90;;;;;;5066071;28;20203;-80
2023/08/15 08:49:20;;;;;;;2.28;1.70;;;22.30;99.90;;;;;;5065272;28;20219;-81
2023/08/15 08:51:47;;;;;;;1.63;1.52;;;22.30;99.90;;;;;;5065264;28;20195;-81
2023/08/15 08:54:14;;;;;;;2.00;1.90;;;22.40;99.90;;;;;;5065224;28;20198;-79
2023/08/15 08:56:43;;;;;;;2.53;2.30;;;22.40;99.90;;;;;;5063410;28;20207;-81
2023/08/15 08:59:12;;;;;;;4.10;1.92;;;22.40;99.90;;;;;;5065611;28;20311;-78
2023/08/15 09:01:40;;;;;;;3.17;2.13;;;22.40;99.90;;;;;;5065723;28;20202;-78
2023/08/15 09:04:07;;;;;;;2.38;2.17;;;22.60;99.90;;;;;;5064531;28;20210;-81
2023/08/15 09:06:35;;;;;;;3.92;1.70;;;22.80;99.90;;;;;;5064771;28;20286;-81
2023/08/15 09:09:03;;;;;;;1.73;1.63;;;23.10;99.90;;;;;;5064195;28;20243;-81
2023/08/15 09:11:34;;;;;;;2.05;1.83;;;23.40;99.90;;;;;;5064387;28;20207;-82
2023/08/15 09:14:03;;;;;;;2.00;1.80;;;23.70;99.90;;;;;;5065449;28;20708;-79
2023/08/15 09:16:30;;;;;;;2.30;2.10;;;23.90;99.90;;;;;;5064356;28;20422;-81
2023/08/15 09:19:00;;;;;;;2.70;1.95;;;24.20;99.90;;;;;;5062789;28;20313;-81
2023/08/15 09:21:28;;;;;;;2.75;2.00;;;24.50;99.90;;;;;;5064524;28;20203;-82
2023/08/15 09:23:57;;;;;;;1.75;1.60;;;24.60;99.90;;;;;;5063627;28;20278;-81
2023/08/15 09:26:25;;;;;;;1.92;1.80;;;24.80;99.90;;;;;;5064623;28;20206;-81
2023/08/15 09:28:52;;;;;;;1.88;1.60;;;24.80;99.90;;;;;;5064345;28;20223;-81
2023/08/15 09:31:19;;;;;;;3.55;1.75;;;25.00;99.90;;;;;;5064379;28;20203;-81
2023/08/15 09:33:46;;;;;;;1.30;1.20;;;25.00;99.90;;;;;;5062972;28;20203;-81
2023/08/15 09:36:15;;;;;;;1.88;1.63;;;25.10;99.90;;;;;;5063886;28;20210;-81
2023/08/15 09:38:42;;;;;;;1.70;1.60;;;25.50;99.90;;;;;;5063560;28;20237;-80
2023/08/15 09:41:12;;;;;;;2.03;1.75;;;25.60;99.90;;;;;;5063372;28;20211;-82
2023/08/15 09:43:51;;;;;;;2.33;1.55;;;25.90;99.90;;;;;;5063143;28;20233;-81
2023/08/15 09:46:18;;;;;;;1.80;1.70;;;26.20;99.90;;;;;;5063448;28;20213;-80
2023/08/15 09:48:47;;;;;;;2.10;1.90;;;25.70;99.90;;;;;;5062935;28;20219;-81
2023/08/15 09:51:15;;;;;;;2.58;1.80;;;25.80;99.90;;;;;;5063351;28;20207;-82
2023/08/15 09:53:43;;;;;;;1.95;1.85;;;26.30;99.90;;;;;;5063593;28;20293;-81
2023/08/15 09:56:11;;;;;;;1.80;1.70;;;26.30;99.90;;;;;;5062980;28;20210;-80
2023/08/15 09:58:39;;;;;;;2.67;1.60;;;26.50;99.90;;;;;;5063351;28;20282;-81
2023/08/15 10:01:07;;;;;;;1.90;1.80;;;26.70;99.90;;;;;;5063724;28;20199;-80
2023/08/15 10:03:36;;;;;;;2.75;2.13;;;27.00;99.90;;;;;;5064275;28;20262;-81
2023/08/15 10:06:04;;;;;;;2.15;1.80;;;26.90;99.90;;;;;;5064124;28;20234;-80
2023/08/15 10:08:32;;;;;;;2.15;1.95;;;27.00;99.90;;;;;;5065580;28;20231;-81
2023/08/15 10:11:00;;;;;;;4.13;1.95;;;27.00;99.90;;;;;;5070958;28;20257;-79
2023/08/15 10:13:32;;;;;;;3.85;2.15;;;27.30;99.90;;;;;;5080614;28;20204;-81
2023/08/15 10:15:59;;;;;;;2.20;2.03;;;27.30;99.90;;;;;;5084940;28;20266;-80
2023/08/15 10:18:26;;;;;;;4.35;2.30;;;27.40;99.90;;;;;;5071008;28;20313;-80
2023/08/15 10:20:56;;;;;;;1.88;1.77;;;27.00;99.90;;;;;;5070795;28;20893;-80
2023/08/15 10:23:27;;;;;;;3.05;2.45;;;27.10;99.90;;;;;;5079929;28;20199;-80
2023/08/15 10:25:55;;;;;;;3.17;2.25;;;27.70;99.90;;;;;;5086459;28;20224;-80
2023/08/15 10:28:22;;;;;;;4.43;2.20;;;27.50;99.90;;;;;;5069877;28;20257;-79
2023/08/15 10:30:50;;;;;;;3.08;2.25;;;27.70;99.90;;;;;;5066867;28;20596;-79
2023/08/15 10:33:19;;;;;;;2.60;2.38;;;27.90;99.90;;;;;;5067107;28;20207;-80
2023/08/15 10:35:51;;;;;;;2.88;2.20;;;27.80;99.90;;;;;;5068010;28;20274;-80
2023/08/15 10:38:20;;;;;;;4.15;2.60;;;28.30;99.90;;;;;;5082227;28;20234;-79
2023/08/15 10:40:48;;;;;;;4.57;2.90;;;28.30;99.90;;;;;;5086098;28;20210;-79
2023/08/15 10:43:16;;;;;;;2.78;2.58;;;27.90;99.90;;;;;;5086496;28;20237;-79
2023/08/15 10:45:45;;;;;;;3.00;2.70;;;28.00;99.90;;;;;;5086919;28;20210;-80
2023/08/15 10:48:14;;;;;;;3.60;2.80;;;28.20;99.90;;;;;;5094845;28;20207;-80
2023/08/15 10:50:46;;;;;;;3.97;2.92;;;28.30;99.90;;;;;;5079881;28;20198;-78
2023/08/15 10:53:13;;;;;;;3.45;3.05;;;28.60;99.90;;;;;;5081132;28;20213;-80
2023/08/15 10:55:40;;;;;;;3.53;3.22;;;28.30;99.90;;;;;;5066587;28;20210;-78
2023/08/15 10:58:10;;;;;;;3.65;3.20;;;28.30;99.90;;;;;;5065766;28;20294;-80
2023/08/15 11:00:37;;;;;;;2.95;2.75;;;28.20;99.90;;;;;;5066159;28;20219;-81
2023/08/15 11:03:05;;;;;;;3.20;2.90;;;28.60;99.90;;;;;;5066250;28;20667;-81
2023/08/15 11:05:33;;;;;;;3.63;3.33;;;28.50;99.90;;;;;;5066428;28;20676;-80
2023/08/15 11:08:14;;;;;;;3.78;3.10;;;28.40;99.90;;;;;;5064756;28;20230;-79
2023/08/15 11:10:45;;;;;;;3.17;2.88;;;28.50;99.90;;;;;;5065876;28;20210;-81
2023/08/15 11:13:12;;;;;;;3.00;2.70;;;28.10;99.90;;;;;;5066533;28;20684;-80
2023/08/15 11:15:39;;;;;;;4.75;3.10;;;28.30;99.90;;;;;;5074761;28;20289;-79
2023/08/15 11:18:06;;;;;;;3.08;2.78;;;28.20;99.90;;;;;;5085400;28;20218;-80
2023/08/15 11:20:35;;;;;;;3.15;2.80;;;29.20;99.90;;;;;;5085620;28;21075;-80
2023/08/15 11:23:01;;;;;;;2.80;2.60;;;29.40;99.90;;;;;;5081916;28;20214;-80
2023/08/15 11:25:28;;;;;;;2.80;2.60;;;29.30;99.90;;;;;;5064010;28;20231;-80
2023/08/15 11:27:55;;;;;;;3.15;2.90;;;29.50;99.90;;;;;;5064461;28;20210;-80
2023/08/15 11:30:22;;;;;;;3.65;2.70;;;28.70;99.90;;;;;;5063182;28;20298;-78
2023/08/15 11:32:50;;;;;;;2.95;2.70;;;28.60;99.90;;;;;;5064071;28;20657;-80
2023/08/15 11:35:18;;;;;;;3.10;2.80;;;29.10;99.90;;;;;;5064742;28;20203;-80
2023/08/15 11:37:47;;;;;;;4.57;3.00;;;29.60;99.90;;;;;;5065365;28;20249;-80
2023/08/15 11:40:14;;;;;;;3.10;2.55;;;29.30;99.90;;;;;;5066180;28;20226;-81
2023/08/15 11:42:41;;;;;;;3.30;2.72;;;29.20;99.90;;;;;;5065126;28;20203;-79
2023/08/15 11:45:17;;;;;;;2.72;2.53;;;28.90;99.90;;;;;;5064874;28;20191;-80
2023/08/15 11:47:58;;;;;;;3.15;2.88;;;28.50;99.90;;;;;;5064434;28;20274;-81
2023/08/15 11:50:26;;;;;;;4.13;2.90;;;28.30;99.90;;;;;;5066282;28;20206;-80
2023/08/15 11:52:55;;;;;;;4.18;3.35;;;28.20;99.90;;;;;;5076876;28;20217;-79
2023/08/15 11:55:21;;;;;;;4.03;2.90;;;27.80;99.90;;;;;;5103307;28;20202;-79
2023/08/15 11:57:50;;;;;;;3.67;3.30;;;28.00;99.90;;;;;;5081046;28;20290;-80
2023/08/15 12:00:17;;;;;;;3.90;3.13;;;28.10;99.90;;;;;;5065417;28;20337;-80
2023/08/15 12:02:45;;;;;;;3.53;2.72;;;27.90;99.90;;;;;;5065454;28;20238;-81
2023/08/15 12:05:13;;;;;;;3.75;2.78;;;27.90;99.90;;;;;;5065807;28;20209;-81
2023/08/15 12:07:40;;;;;;;3.65;2.85;;;28.10;99.90;;;;;;5064776;28;20270;-79
2023/08/15 12:10:09;;;;;;;3.40;2.80;;;28.10;99.90;;;;;;5064911;28;20219;-80
2023/08/15 12:12:40;;;;;;;3.20;2.47;;;28.60;99.90;;;;;;5075037;28;20265;-79
2023/08/15 12:15:08;;;;;;;2.60;2.40;;;29.40;99.90;;;;;;5085039;28;20206;-81
2023/08/15 12:17:36;;;;;;;2.78;2.50;;;29.90;99.90;;;;;;5084617;28;20206;-81
2023/08/15 12:20:05;;;;;;;3.20;2.90;;;29.40;99.90;;;;;;5083274;28;20732;-79
2023/08/15 12:22:32;;;;;;;3.35;3.05;;;29.60;99.90;;;;;;5083278;28;20202;-79
2023/08/15 12:24:59;;;;;;;3.08;2.65;;;29.60;99.90;;;;;;5095834;28;20233;-80
2023/08/15 12:27:27;;;;;;;3.05;2.75;;;29.80;99.90;;;;;;5074591;28;20264;-80
2023/08/15 12:29:54;;;;;;;2.80;2.60;;;30.10;99.90;;;;;;5092824;28;20217;-80
2023/08/15 12:32:21;;;;;;;4.20;2.83;;;30.20;99.90;;;;;;5091228;28;20202;-81
2023/08/15 12:34:48;;;;;;;2.80;2.60;;;29.90;99.90;;;;;;5083391;28;20202;-79
2023/08/15 12:37:15;;;;;;;3.10;2.90;;;29.70;99.90;;;;;;5083579;28;20307;-79
2023/08/15 12:39:42;;;;;;;4.28;3.10;;;29.60;99.90;;;;;;5084335;28;20298;-81
2023/08/15 12:42:09;;;;;;;3.60;2.90;;;28.80;99.90;;;;;;5077857;28;20209;-80
2023/08/15 12:44:37;;;;;;;3.03;2.83;;;28.80;99.90;;;;;;5069145;28;20224;-80
2023/08/15 12:47:04;;;;;;;3.25;2.97;;;28.70;99.90;;;;;;5081682;28;20233;-80
2023/08/15 12:49:31;;;;;;;2.85;2.65;;;28.70;99.90;;;;;;5083330;28;20218;-79